KBBD/BBD METAR and TAF weather

Enter ICAO airport designator
Station Type Date Time Source
KBBD METAR 2019/08/22 09:35 UTC NOAA

KBBD 220935Z AUTO 19005KT 10SM CLR 24/19 A2998 RMK AO2


Station Type Date Time Source
KBBD Decoded METAR 2019/08/22 09:35 UTC NOAA

Station name not available
Aug 22, 2019 - 05:35 AM EDT / 2019.08.22 0935 UTC
Wind: from the S (190 degrees) at 6 MPH (5 KT):0
Visibility: 10 mile(s):0
Sky conditions: clear
Temperature: 75 F (24 C)
Dew Point: 66 F (19 C)
Relative Humidity: 73%
Pressure (altimeter): 29.98 in. Hg (1015 hPa)
ob: KBBD 220935Z AUTO 19005KT 10SM CLR 24/19 A2998 RMK AO2
cycle: 9

Station Type Date Time Source
KBBD TAF 2019/08/22 06:34 UTC NOAA

TAF KBBD 220532Z 2206/2306 16005KT P6SM SKC
FM221800 15007G15KT P6SM SCT090

Example: see airport list